sensor_id;sensor_type;location;lat;lon;timestamp;temperature;humidity
1534;DHT22;760;48.822;9.304;2023-05-07T04:05:52;11.90;99.90
1534;DHT22;760;48.822;9.304;2023-05-07T04:08:18;11.90;99.90
1534;DHT22;760;48.822;9.304;2023-05-07T04:10:44;11.90;99.90
1534;DHT22;760;48.822;9.304;2023-05-07T04:13:09;11.90;99.90
1534;DHT22;760;48.822;9.304;2023-05-07T04:15:35;11.90;99.90
1534;DHT22;760;48.822;9.304;2023-05-07T04:18:01;11.90;99.90
1534;DHT22;760;48.822;9.304;2023-05-07T04:20:27;11.90;99.90
1534;DHT22;760;48.822;9.304;2023-05-07T04:22:52;12.00;99.90
1534;DHT22;760;48.822;9.304;2023-05-07T04:25:18;12.00;99.90
1534;DHT22;760;48.822;9.304;2023-05-07T04:27:43;12.00;99.90
1534;DHT22;760;48.822;9.304;2023-05-07T04:30:09;12.10;99.90
1534;DHT22;760;48.822;9.304;2023-05-07T04:32:35;12.10;99.90
1534;DHT22;760;48.822;9.304;2023-05-07T04:35:02;12.20;99.90
1534;DHT22;760;48.822;9.304;2023-05-07T04:37:28;12.20;99.90
1534;DHT22;760;48.822;9.304;2023-05-07T04:39:53;12.40;99.90
1534;DHT22;760;48.822;9.304;2023-05-07T04:42:19;12.40;99.90
1534;DHT22;760;48.822;9.304;2023-05-07T04:44:45;12.50;99.90
1534;DHT22;760;48.822;9.304;2023-05-07T04:47:11;12.70;99.90
1534;DHT22;760;48.822;9.304;2023-05-07T04:49:37;12.80;99.90
1534;DHT22;760;48.822;9.304;2023-05-07T04:52:03;13.00;99.90
1534;DHT22;760;48.822;9.304;2023-05-07T04:54:29;13.10;99.90
1534;DHT22;760;48.822;9.304;2023-05-07T04:56:55;13.30;99.90
1534;DHT22;760;48.822;9.304;2023-05-07T04:59:20;13.50;99.90
1534;DHT22;760;48.822;9.304;2023-05-07T05:01:46;13.70;99.90
1534;DHT22;760;48.822;9.304;2023-05-07T05:04:12;13.70;99.90
1534;DHT22;760;48.822;9.304;2023-05-07T05:06:38;13.80;99.90
1534;DHT22;760;48.822;9.304;2023-05-07T05:09:04;13.80;99.90
1534;DHT22;760;48.822;9.304;2023-05-07T05:11:30;13.80;99.90
1534;DHT22;760;48.822;9.304;2023-05-07T05:13:56;13.70;99.90
1534;DHT22;760;48.822;9.304;2023-05-07T05:16:22;13.70;99.90
1534;DHT22;760;48.822;9.304;2023-05-07T05:18:48;13.70;99.90
1534;DHT22;760;48.822;9.304;2023-05-07T05:21:13;13.60;99.90
1534;DHT22;760;48.822;9.304;2023-05-07T05:23:39;13.60;99.90
1534;DHT22;760;48.822;9.304;2023-05-07T05:26:05;13.60;99.90
1534;DHT22;760;48.822;9.304;2023-05-07T05:28:30;13.70;99.90
1534;DHT22;760;48.822;9.304;2023-05-07T05:30:56;13.70;99.90
1534;DHT22;760;48.822;9.304;2023-05-07T05:33:21;13.70;99.90
1534;DHT22;760;48.822;9.304;2023-05-07T05:35:47;13.70;99.90
1534;DHT22;760;48.822;9.304;2023-05-07T05:38:13;13.80;99.90
1534;DHT22;760;48.822;9.304;2023-05-07T05:40:39;13.80;99.90
1534;DHT22;760;48.822;9.304;2023-05-07T05:43:05;14.00;99.90
1534;DHT22;760;48.822;9.304;2023-05-07T05:45:30;14.20;99.90
1534;DHT22;760;48.822;9.304;2023-05-07T05:47:57;14.40;99.90
1534;DHT22;760;48.822;9.304;2023-05-07T05:50:22;14.60;99.90
1534;DHT22;760;48.822;9.304;2023-05-07T05:52:48;14.80;99.90
1534;DHT22;760;48.822;9.304;2023-05-07T05:55:14;14.90;99.90
1534;DHT22;760;48.822;9.304;2023-05-07T05:57:40;15.10;99.90
1534;DHT22;760;48.822;9.304;2023-05-07T06:00:06;15.40;99.90
1534;DHT22;760;48.822;9.304;2023-05-07T06:02:33;15.70;99.90
1534;DHT22;760;48.822;9.304;2023-05-07T06:04:58;15.90;99.90
1534;DHT22;760;48.822;9.304;2023-05-07T06:07:25;16.10;99.90
1534;DHT22;760;48.822;9.304;2023-05-07T06:09:50;16.40;99.90
1534;DHT22;760;48.822;9.304;2023-05-07T06:12:16;16.70;99.90
1534;DHT22;760;48.822;9.304;2023-05-07T06:14:43;17.00;99.90
1534;DHT22;760;48.822;9.304;2023-05-07T06:17:09;17.20;99.90
1534;DHT22;760;48.822;9.304;2023-05-07T06:19:34;17.40;99.90
1534;DHT22;760;48.822;9.304;2023-05-07T06:22:00;17.50;99.90
1534;DHT22;760;48.822;9.304;2023-05-07T06:24:27;17.80;99.90
1534;DHT22;760;48.822;9.304;2023-05-07T06:26:52;17.90;99.90
1534;DHT22;760;48.822;9.304;2023-05-07T06:29:18;17.90;99.90
1534;DHT22;760;48.822;9.304;2023-05-07T06:31:44;17.90;99.90
1534;DHT22;760;48.822;9.304;2023-05-07T06:34:10;17.90;99.90
1534;DHT22;760;48.822;9.304;2023-05-07T06:36:35;17.90;99.90
1534;DHT22;760;48.822;9.304;2023-05-07T06:39:01;18.00;99.90
1534;DHT22;760;48.822;9.304;2023-05-07T06:41:27;18.00;99.90
1534;DHT22;760;48.822;9.304;2023-05-07T06:43:52;18.00;99.90
1534;DHT22;760;48.822;9.304;2023-05-07T06:46:18;18.10;99.90
1534;DHT22;760;48.822;9.304;2023-05-07T06:48:43;18.10;99.90
1534;DHT22;760;48.822;9.304;2023-05-07T06:51:09;18.20;99.90
1534;DHT22;760;48.822;9.304;2023-05-07T06:53:35;18.30;99.90
1534;DHT22;760;48.822;9.304;2023-05-07T06:56:01;18.40;99.90
1534;DHT22;760;48.822;9.304;2023-05-07T06:58:26;18.50;99.90
1534;DHT22;760;48.822;9.304;2023-05-07T07:00:53;18.60;99.90
1534;DHT22;760;48.822;9.304;2023-05-07T07:03:19;18.70;99.90
1534;DHT22;760;48.822;9.304;2023-05-07T07:05:44;18.80;99.90
1534;DHT22;760;48.822;9.304;2023-05-07T07:08:10;18.90;99.90
1534;DHT22;760;48.822;9.304;2023-05-07T07:10:35;19.00;99.90
1534;DHT22;760;48.822;9.304;2023-05-07T07:13:01;19.20;99.90
1534;DHT22;760;48.822;9.304;2023-05-07T07:15:27;19.40;99.90
1534;DHT22;760;48.822;9.304;2023-05-07T07:17:52;19.50;99.90
1534;DHT22;760;48.822;9.304;2023-05-07T07:20:18;19.60;99.90
1534;DHT22;760;48.822;9.304;2023-05-07T07:22:43;19.70;99.90
1534;DHT22;760;48.822;9.304;2023-05-07T07:25:09;19.90;99.90
1534;DHT22;760;48.822;9.304;2023-05-07T07:27:36;20.20;99.90
1534;DHT22;760;48.822;9.304;2023-05-07T07:30:02;20.50;99.90
1534;DHT22;760;48.822;9.304;2023-05-07T07:32:28;20.80;99.90
1534;DHT22;760;48.822;9.304;2023-05-07T07:34:53;21.20;99.90
1534;DHT22;760;48.822;9.304;2023-05-07T07:37:19;21.70;99.20
1534;DHT22;760;48.822;9.304;2023-05-07T07:39:44;22.20;98.80
1534;DHT22;760;48.822;9.304;2023-05-07T07:42:10;22.90;97.20
1534;DHT22;760;48.822;9.304;2023-05-07T07:44:36;23.50;96.30
1534;DHT22;760;48.822;9.304;2023-05-07T07:47:01;24.40;94.90
1534;DHT22;760;48.822;9.304;2023-05-07T07:49:27;25.40;93.60
1534;DHT22;760;48.822;9.304;2023-05-07T07:51:53;26.40;92.10
1534;DHT22;760;48.822;9.304;2023-05-07T07:54:18;27.30;91.30
1534;DHT22;760;48.822;9.304;2023-05-07T07:56:44;28.10;89.50
1534;DHT22;760;48.822;9.304;2023-05-07T07:59:10;28.90;85.20
1534;DHT22;760;48.822;9.304;2023-05-07T08:01:35;29.50;83.00
1534;DHT22;760;48.822;9.304;2023-05-07T08:04:01;29.50;82.10
1534;DHT22;760;48.822;9.304;2023-05-07T08:06:28;29.60;81.10
1534;DHT22;760;48.822;9.304;2023-05-07T08:08:54;29.40;80.60
1534;DHT22;760;48.822;9.304;2023-05-07T08:11:20;29.20;80.50
1534;DHT22;760;48.822;9.304;2023-05-07T08:13:46;29.00;80.10
1534;DHT22;760;48.822;9.304;2023-05-07T08:16:13;28.70;80.50
1534;DHT22;760;48.822;9.304;2023-05-07T08:18:38;28.80;81.70
1534;DHT22;760;48.822;9.304;2023-05-07T08:21:04;28.90;80.90
1534;DHT22;760;48.822;9.304;2023-05-07T08:23:30;28.90;81.40
1534;DHT22;760;48.822;9.304;2023-05-07T08:25:56;28.80;80.50
1534;DHT22;760;48.822;9.304;2023-05-07T08:28:21;28.80;80.60
1534;DHT22;760;48.822;9.304;2023-05-07T08:30:47;28.90;80.40
1534;DHT22;760;48.822;9.304;2023-05-07T08:33:13;28.90;80.40
1534;DHT22;760;48.822;9.304;2023-05-07T08:35:38;28.90;81.20
1534;DHT22;760;48.822;9.304;2023-05-07T08:38:04;29.20;80.20
1534;DHT22;760;48.822;9.304;2023-05-07T08:40:34;29.90;80.00
1534;DHT22;760;48.822;9.304;2023-05-07T08:43:02;30.50;78.70
1534;DHT22;760;48.822;9.304;2023-05-07T08:45:29;30.70;76.90
1534;DHT22;760;48.822;9.304;2023-05-07T08:47:58;30.60;75.80
1534;DHT22;760;48.822;9.304;2023-05-07T08:50:25;30.40;75.30
1534;DHT22;760;48.822;9.304;2023-05-07T08:52:50;30.30;76.30
1534;DHT22;760;48.822;9.304;2023-05-07T08:55:17;30.40;75.80
1534;DHT22;760;48.822;9.304;2023-05-07T08:57:42;30.80;75.00
1534;DHT22;760;48.822;9.304;2023-05-07T09:00:08;31.00;74.70
1534;DHT22;760;48.822;9.304;2023-05-07T09:02:35;31.30;77.00
1534;DHT22;760;48.822;9.304;2023-05-07T09:05:01;31.80;75.90
1534;DHT22;760;48.822;9.304;2023-05-07T09:07:27;32.20;73.90
1534;DHT22;760;48.822;9.304;2023-05-07T09:09:53;32.70;72.90
1534;DHT22;760;48.822;9.304;2023-05-07T09:12:21;33.40;74.30
1534;DHT22;760;48.822;9.304;2023-05-07T09:14:47;34.20;71.10
1534;DHT22;760;48.822;9.304;2023-05-07T09:17:13;34.90;69.10
1534;DHT22;760;48.822;9.304;2023-05-07T09:19:38;35.30;67.00
1534;DHT22;760;48.822;9.304;2023-05-07T09:22:05;35.60;67.30
1534;DHT22;760;48.822;9.304;2023-05-07T09:24:32;36.00;64.90
1534;DHT22;760;48.822;9.304;2023-05-07T09:27:03;36.20;64.00
1534;DHT22;760;48.822;9.304;2023-05-07T09:29:29;36.10;65.00
1534;DHT22;760;48.822;9.304;2023-05-07T09:31:58;36.30;63.90
1534;DHT22;760;48.822;9.304;2023-05-07T09:34:23;36.50;64.00
1534;DHT22;760;48.822;9.304;2023-05-07T09:36:49;36.30;61.50
1534;DHT22;760;48.822;9.304;2023-05-07T09:39:15;36.00;60.60
1534;DHT22;760;48.822;9.304;2023-05-07T09:41:48;36.10;63.20
1534;DHT22;760;48.822;9.304;2023-05-07T09:44:14;36.40;59.70
1534;DHT22;760;48.822;9.304;2023-05-07T09:46:43;36.00;58.90
1534;DHT22;760;48.822;9.304;2023-05-07T09:49:15;35.90;59.10
1534;DHT22;760;48.822;9.304;2023-05-07T09:51:48;35.90;60.00
1534;DHT22;760;48.822;9.304;2023-05-07T09:54:14;36.50;59.90
1534;DHT22;760;48.822;9.304;2023-05-07T09:56:40;36.80;59.70
1534;DHT22;760;48.822;9.304;2023-05-07T09:59:12;37.30;58.60
1534;DHT22;760;48.822;9.304;2023-05-07T10:01:38;37.50;57.00
1534;DHT22;760;48.822;9.304;2023-05-07T10:04:05;37.30;56.60
1534;DHT22;760;48.822;9.304;2023-05-07T10:06:34;37.00;56.20
1534;DHT22;760;48.822;9.304;2023-05-07T10:09:00;36.70;56.90
1534;DHT22;760;48.822;9.304;2023-05-07T10:11:26;36.50;55.70
1534;DHT22;760;48.822;9.304;2023-05-07T10:13:52;36.30;56.30
1534;DHT22;760;48.822;9.304;2023-05-07T10:16:18;36.30;56.30
1534;DHT22;760;48.822;9.304;2023-05-07T10:18:45;35.90;57.10
1534;DHT22;760;48.822;9.304;2023-05-07T10:21:20;34.60;58.00
1534;DHT22;760;48.822;9.304;2023-05-07T10:23:50;33.50;58.60
1534;DHT22;760;48.822;9.304;2023-05-07T10:26:18;32.40;60.90
1534;DHT22;760;48.822;9.304;2023-05-07T10:28:49;32.10;62.60
1534;DHT22;760;48.822;9.304;2023-05-07T10:34:23;32.80;62.40
1534;DHT22;760;48.822;9.304;2023-05-07T10:36:50;33.10;60.80
1534;DHT22;760;48.822;9.304;2023-05-07T10:39:17;32.80;60.60
1534;DHT22;760;48.822;9.304;2023-05-07T10:41:42;32.80;61.10
1534;DHT22;760;48.822;9.304;2023-05-07T10:44:08;32.70;60.90
1534;DHT22;760;48.822;9.304;2023-05-07T10:46:34;32.60;61.10
1534;DHT22;760;48.822;9.304;2023-05-07T10:51:26;32.60;60.00
1534;DHT22;760;48.822;9.304;2023-05-07T10:54:24;32.50;61.00
1534;DHT22;760;48.822;9.304;2023-05-07T10:56:50;31.90;61.60
1534;DHT22;760;48.822;9.304;2023-05-07T11:01:57;31.70;61.70
1534;DHT22;760;48.822;9.304;2023-05-07T11:04:24;31.50;62.30
1534;DHT22;760;48.822;9.304;2023-05-07T11:12:45;29.70;65.10
1534;DHT22;760;48.822;9.304;2023-05-07T11:15:06;29.20;66.20
1534;DHT22;760;48.822;9.304;2023-05-07T11:17:33;28.40;68.00
1534;DHT22;760;48.822;9.304;2023-05-07T11:20:03;27.80;68.40
1534;DHT22;760;48.822;9.304;2023-05-07T11:25:05;27.10;71.60
1534;DHT22;760;48.822;9.304;2023-05-07T11:27:32;26.60;71.90
1534;DHT22;760;48.822;9.304;2023-05-07T11:29:58;26.40;72.80
1534;DHT22;760;48.822;9.304;2023-05-07T11:32:28;26.30;73.40
1534;DHT22;760;48.822;9.304;2023-05-07T11:34:55;26.10;75.20
1534;DHT22;760;48.822;9.304;2023-05-07T11:37:23;25.90;75.90
1534;DHT22;760;48.822;9.304;2023-05-07T11:39:49;25.60;76.30
1534;DHT22;760;48.822;9.304;2023-05-07T11:42:31;25.40;76.80
1534;DHT22;760;48.822;9.304;2023-05-07T11:44:57;25.30;78.40
1534;DHT22;760;48.822;9.304;2023-05-07T11:47:23;25.20;78.80
1534;DHT22;760;48.822;9.304;2023-05-07T11:49:51;25.20;78.60
1534;DHT22;760;48.822;9.304;2023-05-07T11:52:18;25.20;76.10
1534;DHT22;760;48.822;9.304;2023-05-07T11:54:50;25.30;76.70
1534;DHT22;760;48.822;9.304;2023-05-07T11:57:16;25.40;76.00
1534;DHT22;760;48.822;9.304;2023-05-07T11:59:42;25.50;76.40
1534;DHT22;760;48.822;9.304;2023-05-07T12:02:10;25.60;75.90
1534;DHT22;760;48.822;9.304;2023-05-07T12:04:37;25.60;75.50
1534;DHT22;760;48.822;9.304;2023-05-07T12:07:03;25.60;75.40
1534;DHT22;760;48.822;9.304;2023-05-07T12:09:29;25.60;76.10
1534;DHT22;760;48.822;9.304;2023-05-07T12:11:55;25.50;78.40
1534;DHT22;760;48.822;9.304;2023-05-07T12:14:21;25.30;78.90
1534;DHT22;760;48.822;9.304;2023-05-07T12:16:47;25.30;78.00
1534;DHT22;760;48.822;9.304;2023-05-07T12:19:13;25.20;79.00
1534;DHT22;760;48.822;9.304;2023-05-07T12:21:40;25.00;79.00
1534;DHT22;760;48.822;9.304;2023-05-07T12:24:06;24.90;78.80
1534;DHT22;760;48.822;9.304;2023-05-07T12:26:40;24.70;78.20
1534;DHT22;760;48.822;9.304;2023-05-07T12:29:06;24.50;79.60
1534;DHT22;760;48.822;9.304;2023-05-07T12:31:32;24.30;79.60
1534;DHT22;760;48.822;9.304;2023-05-07T12:33:57;24.10;79.20
1534;DHT22;760;48.822;9.304;2023-05-07T12:36:23;23.90;80.20
1534;DHT22;760;48.822;9.304;2023-05-07T12:38:50;23.70;80.60
1534;DHT22;760;48.822;9.304;2023-05-07T12:41:16;23.60;81.20
1534;DHT22;760;48.822;9.304;2023-05-07T12:43:44;23.50;81.60
1534;DHT22;760;48.822;9.304;2023-05-07T12:46:11;23.50;82.10
1534;DHT22;760;48.822;9.304;2023-05-07T12:48:43;23.40;83.50
1534;DHT22;760;48.822;9.304;2023-05-07T12:51:10;23.20;86.20
1534;DHT22;760;48.822;9.304;2023-05-07T12:53:40;23.00;88.10
1534;DHT22;760;48.822;9.304;2023-05-07T12:56:07;22.70;89.80
1534;DHT22;760;48.822;9.304;2023-05-07T12:58:34;22.30;89.80
1534;DHT22;760;48.822;9.304;2023-05-07T13:01:05;22.00;90.20
1534;DHT22;760;48.822;9.304;2023-05-07T13:03:33;21.80;90.90
1534;DHT22;760;48.822;9.304;2023-05-07T13:06:01;21.50;91.80
1534;DHT22;760;48.822;9.304;2023-05-07T13:08:35;21.30;92.80
1534;DHT22;760;48.822;9.304;2023-05-07T13:11:07;21.10;93.80
1534;DHT22;760;48.822;9.304;2023-05-07T13:13:34;20.90;94.90
1534;DHT22;760;48.822;9.304;2023-05-07T13:16:01;20.70;95.10
1534;DHT22;760;48.822;9.304;2023-05-07T13:18:28;20.50;95.70
1534;DHT22;760;48.822;9.304;2023-05-07T13:20:54;20.30;96.80
1534;DHT22;760;48.822;9.304;2023-05-07T13:23:20;20.20;96.70
1534;DHT22;760;48.822;9.304;2023-05-07T13:25:46;20.00;97.90
1534;DHT22;760;48.822;9.304;2023-05-07T13:28:11;19.70;98.20
1534;DHT22;760;48.822;9.304;2023-05-07T13:30:37;19.50;99.40
1534;DHT22;760;48.822;9.304;2023-05-07T13:33:03;19.30;99.90
1534;DHT22;760;48.822;9.304;2023-05-07T13:35:29;19.00;99.40
1534;DHT22;760;48.822;9.304;2023-05-07T13:37:55;18.50;99.90
1534;DHT22;760;48.822;9.304;2023-05-07T13:40:21;18.20;99.90
1534;DHT22;760;48.822;9.304;2023-05-07T13:42:47;17.70;99.90
1534;DHT22;760;48.822;9.304;2023-05-07T13:45:13;17.40;99.90
1534;DHT22;760;48.822;9.304;2023-05-07T13:47:40;17.20;99.90
1534;DHT22;760;48.822;9.304;2023-05-07T13:50:07;17.00;99.90
1534;DHT22;760;48.822;9.304;2023-05-07T13:52:33;16.80;99.90
1534;DHT22;760;48.822;9.304;2023-05-07T13:54:59;16.80;99.90
1534;DHT22;760;48.822;9.304;2023-05-07T13:57:24;16.70;99.90
1534;DHT22;760;48.822;9.304;2023-05-07T13:59:50;16.70;99.90
1534;DHT22;760;48.822;9.304;2023-05-07T14:02:15;16.70;99.90
1534;DHT22;760;48.822;9.304;2023-05-07T14:04:41;16.70;99.90
1534;DHT22;760;48.822;9.304;2023-05-07T14:07:07;16.70;99.90
1534;DHT22;760;48.822;9.304;2023-05-07T14:09:32;16.70;99.90
1534;DHT22;760;48.822;9.304;2023-05-07T14:11:58;16.60;99.90
1534;DHT22;760;48.822;9.304;2023-05-07T14:14:24;16.60;99.90
1534;DHT22;760;48.822;9.304;2023-05-07T14:16:50;16.50;99.90
1534;DHT22;760;48.822;9.304;2023-05-07T14:19:15;16.40;99.90
1534;DHT22;760;48.822;9.304;2023-05-07T14:21:41;16.40;99.90
1534;DHT22;760;48.822;9.304;2023-05-07T14:24:11;16.40;99.90
1534;DHT22;760;48.822;9.304;2023-05-07T14:26:36;16.40;99.90
1534;DHT22;760;48.822;9.304;2023-05-07T14:29:03;16.40;99.90
1534;DHT22;760;48.822;9.304;2023-05-07T14:31:29;16.30;99.90
1534;DHT22;760;48.822;9.304;2023-05-07T14:33:54;16.30;99.90
1534;DHT22;760;48.822;9.304;2023-05-07T14:36:20;16.30;99.90
1534;DHT22;760;48.822;9.304;2023-05-07T14:38:47;16.30;99.90
1534;DHT22;760;48.822;9.304;2023-05-07T14:41:13;16.20;99.90
1534;DHT22;760;48.822;9.304;2023-05-07T14:43:38;16.20;99.90
1534;DHT22;760;48.822;9.304;2023-05-07T14:46:04;16.20;99.90
1534;DHT22;760;48.822;9.304;2023-05-07T14:48:29;16.30;99.90
1534;DHT22;760;48.822;9.304;2023-05-07T14:50:55;16.30;99.90
1534;DHT22;760;48.822;9.304;2023-05-07T14:53:21;16.20;99.90
1534;DHT22;760;48.822;9.304;2023-05-07T14:55:48;16.20;99.90
1534;DHT22;760;48.822;9.304;2023-05-07T14:58:14;16.20;99.90
1534;DHT22;760;48.822;9.304;2023-05-07T15:00:39;16.10;99.90
1534;DHT22;760;48.822;9.304;2023-05-07T15:03:07;16.10;99.90
1534;DHT22;760;48.822;9.304;2023-05-07T15:05:33;16.10;99.90
1534;DHT22;760;48.822;9.304;2023-05-07T15:07:59;16.10;99.90
1534;DHT22;760;48.822;9.304;2023-05-07T15:10:26;16.10;99.90
1534;DHT22;760;48.822;9.304;2023-05-07T15:12:51;16.00;99.90
1534;DHT22;760;48.822;9.304;2023-05-07T15:15:17;16.10;99.90
1534;DHT22;760;48.822;9.304;2023-05-07T15:17:42;16.10;99.90
1534;DHT22;760;48.822;9.304;2023-05-07T15:20:08;16.10;99.90
1534;DHT22;760;48.822;9.304;2023-05-07T15:22:35;16.10;99.90
1534;DHT22;760;48.822;9.304;2023-05-07T15:25:02;16.00;99.90
1534;DHT22;760;48.822;9.304;2023-05-07T15:27:29;16.00;99.90
1534;DHT22;760;48.822;9.304;2023-05-07T15:29:56;16.10;99.90
1534;DHT22;760;48.822;9.304;2023-05-07T15:32:22;16.10;99.90
1534;DHT22;760;48.822;9.304;2023-05-07T15:34:47;16.10;99.90
1534;DHT22;760;48.822;9.304;2023-05-07T15:37:13;16.00;99.90
1534;DHT22;760;48.822;9.304;2023-05-07T15:39:39;16.00;99.90
1534;DHT22;760;48.822;9.304;2023-05-07T15:42:05;16.10;99.90
1534;DHT22;760;48.822;9.304;2023-05-07T15:44:30;16.10;99.90
1534;DHT22;760;48.822;9.304;2023-05-07T15:46:58;16.20;99.90
1534;DHT22;760;48.822;9.304;2023-05-07T15:49:24;16.20;99.90
1534;DHT22;760;48.822;9.304;2023-05-07T15:51:50;16.20;99.90
1534;DHT22;760;48.822;9.304;2023-05-07T15:54:16;16.30;99.90
1534;DHT22;760;48.822;9.304;2023-05-07T15:56:45;16.30;99.90
1534;DHT22;760;48.822;9.304;2023-05-07T15:59:11;16.30;99.90
1534;DHT22;760;48.822;9.304;2023-05-07T16:01:37;16.40;99.90
1534;DHT22;760;48.822;9.304;2023-05-07T16:04:03;16.40;99.90
1534;DHT22;760;48.822;9.304;2023-05-07T16:06:29;16.50;99.90
1534;DHT22;760;48.822;9.304;2023-05-07T16:08:55;16.50;99.90
1534;DHT22;760;48.822;9.304;2023-05-07T16:11:21;16.60;99.90
1534;DHT22;760;48.822;9.304;2023-05-07T16:13:46;16.60;99.90
1534;DHT22;760;48.822;9.304;2023-05-07T16:16:12;16.60;99.90
1534;DHT22;760;48.822;9.304;2023-05-07T16:18:38;16.50;99.90
1534;DHT22;760;48.822;9.304;2023-05-07T16:21:04;16.50;99.90
1534;DHT22;760;48.822;9.304;2023-05-07T16:23:29;16.50;99.90
1534;DHT22;760;48.822;9.304;2023-05-07T16:25:55;16.50;99.90
1534;DHT22;760;48.822;9.304;2023-05-07T16:28:22;16.50;99.90
1534;DHT22;760;48.822;9.304;2023-05-07T16:30:47;16.60;99.90
1534;DHT22;760;48.822;9.304;2023-05-07T16:33:13;16.60;99.90
1534;DHT22;760;48.822;9.304;2023-05-07T16:35:39;16.60;99.90
1534;DHT22;760;48.822;9.304;2023-05-07T16:38:04;16.60;99.90
1534;DHT22;760;48.822;9.304;2023-05-07T16:40:37;16.50;99.90
1534;DHT22;760;48.822;9.304;2023-05-07T16:43:02;16.50;99.90
1534;DHT22;760;48.822;9.304;2023-05-07T16:45:28;16.40;99.90
1534;DHT22;760;48.822;9.304;2023-05-07T16:47:54;16.40;99.90
1534;DHT22;760;48.822;9.304;2023-05-07T16:50:21;16.40;99.90
1534;DHT22;760;48.822;9.304;2023-05-07T16:52:46;16.50;99.90
1534;DHT22;760;48.822;9.304;2023-05-07T16:55:12;16.50;99.90
1534;DHT22;760;48.822;9.304;2023-05-07T16:57:37;16.50;99.90
1534;DHT22;760;48.822;9.304;2023-05-07T17:00:03;16.50;99.90
1534;DHT22;760;48.822;9.304;2023-05-07T17:02:32;16.50;99.90
1534;DHT22;760;48.822;9.304;2023-05-07T17:04:57;16.50;99.90
1534;DHT22;760;48.822;9.304;2023-05-07T17:07:25;16.40;99.90
1534;DHT22;760;48.822;9.304;2023-05-07T17:09:51;16.50;99.90
1534;DHT22;760;48.822;9.304;2023-05-07T17:12:18;16.40;99.90
1534;DHT22;760;48.822;9.304;2023-05-07T17:14:43;16.40;99.90
1534;DHT22;760;48.822;9.304;2023-05-07T17:17:09;16.40;99.90
1534;DHT22;760;48.822;9.304;2023-05-07T17:19:38;16.30;99.90
1534;DHT22;760;48.822;9.304;2023-05-07T17:22:04;16.30;99.90
1534;DHT22;760;48.822;9.304;2023-05-07T17:24:29;16.30;99.90
1534;DHT22;760;48.822;9.304;2023-05-07T17:26:55;16.30;99.90
1534;DHT22;760;48.822;9.304;2023-05-07T17:29:20;16.30;99.90
1534;DHT22;760;48.822;9.304;2023-05-07T17:31:46;16.20;99.90
1534;DHT22;760;48.822;9.304;2023-05-07T17:34:13;16.20;99.90
1534;DHT22;760;48.822;9.304;2023-05-07T17:36:38;16.20;99.90
1534;DHT22;760;48.822;9.304;2023-05-07T17:39:04;16.20;99.90
1534;DHT22;760;48.822;9.304;2023-05-07T17:41:29;16.30;99.90
1534;DHT22;760;48.822;9.304;2023-05-07T17:43:55;16.20;99.90
1534;DHT22;760;48.822;9.304;2023-05-07T17:46:20;16.20;99.90
1534;DHT22;760;48.822;9.304;2023-05-07T17:48:46;16.30;99.90
1534;DHT22;760;48.822;9.304;2023-05-07T17:51:12;16.20;99.90
1534;DHT22;760;48.822;9.304;2023-05-07T17:53:38;16.20;99.90
1534;DHT22;760;48.822;9.304;2023-05-07T17:56:03;16.20;99.90
1534;DHT22;760;48.822;9.304;2023-05-07T17:58:30;16.20;99.90
1534;DHT22;760;48.822;9.304;2023-05-07T18:00:55;16.20;99.90
1534;DHT22;760;48.822;9.304;2023-05-07T18:03:21;16.10;99.90
1534;DHT22;760;48.822;9.304;2023-05-07T18:05:49;16.20;99.90
1534;DHT22;760;48.822;9.304;2023-05-07T18:08:15;16.20;99.90
1534;DHT22;760;48.822;9.304;2023-05-07T18:10:40;16.10;99.90
1534;DHT22;760;48.822;9.304;2023-05-07T18:13:06;16.10;99.90
1534;DHT22;760;48.822;9.304;2023-05-07T18:15:31;16.00;99.90
1534;DHT22;760;48.822;9.304;2023-05-07T18:17:57;16.00;99.90
1534;DHT22;760;48.822;9.304;2023-05-07T18:20:23;16.00;99.90
1534;DHT22;760;48.822;9.304;2023-05-07T18:22:49;16.00;99.90
1534;DHT22;760;48.822;9.304;2023-05-07T18:25:14;16.00;99.90
1534;DHT22;760;48.822;9.304;2023-05-07T18:27:40;16.00;99.90
1534;DHT22;760;48.822;9.304;2023-05-07T18:30:06;16.00;99.90
1534;DHT22;760;48.822;9.304;2023-05-07T18:32:32;15.90;99.90
1534;DHT22;760;48.822;9.304;2023-05-07T18:34:57;15.90;99.90
1534;DHT22;760;48.822;9.304;2023-05-07T18:37:23;16.00;99.90
1534;DHT22;760;48.822;9.304;2023-05-07T18:39:49;16.00;99.90
1534;DHT22;760;48.822;9.304;2023-05-07T18:42:15;16.00;99.90
1534;DHT22;760;48.822;9.304;2023-05-07T18:44:40;15.90;99.90
1534;DHT22;760;48.822;9.304;2023-05-07T18:47:06;15.90;99.90
1534;DHT22;760;48.822;9.304;2023-05-07T18:49:33;15.90;99.90
1534;DHT22;760;48.822;9.304;2023-05-07T18:51:58;15.90;99.90
1534;DHT22;760;48.822;9.304;2023-05-07T18:54:26;15.90;99.90
1534;DHT22;760;48.822;9.304;2023-05-07T18:56:52;15.90;99.90
1534;DHT22;760;48.822;9.304;2023-05-07T18:59:17;15.90;99.90
1534;DHT22;760;48.822;9.304;2023-05-07T19:01:43;15.90;99.90
1534;DHT22;760;48.822;9.304;2023-05-07T19:04:10;15.90;99.90
1534;DHT22;760;48.822;9.304;2023-05-07T19:06:36;15.80;99.90
1534;DHT22;760;48.822;9.304;2023-05-07T19:09:01;15.80;99.90
1534;DHT22;760;48.822;9.304;2023-05-07T19:11:27;15.80;99.90
1534;DHT22;760;48.822;9.304;2023-05-07T19:13:53;15.90;99.90
1534;DHT22;760;48.822;9.304;2023-05-07T19:16:18;15.90;99.90
1534;DHT22;760;48.822;9.304;2023-05-07T19:18:44;15.80;99.90
1534;DHT22;760;48.822;9.304;2023-05-07T19:21:10;15.80;99.90
1534;DHT22;760;48.822;9.304;2023-05-07T19:23:35;15.80;99.90
1534;DHT22;760;48.822;9.304;2023-05-07T19:26:09;15.80;99.90
1534;DHT22;760;48.822;9.304;2023-05-07T19:28:39;15.80;99.90
1534;DHT22;760;48.822;9.304;2023-05-07T19:31:05;15.80;99.90
1534;DHT22;760;48.822;9.304;2023-05-07T19:33:31;15.70;99.90
1534;DHT22;760;48.822;9.304;2023-05-07T19:35:57;15.70;99.90
1534;DHT22;760;48.822;9.304;2023-05-07T19:38:26;15.70;99.90
1534;DHT22;760;48.822;9.304;2023-05-07T19:40:57;15.70;99.90
1534;DHT22;760;48.822;9.304;2023-05-07T19:43:38;15.70;99.90
1534;DHT22;760;48.822;9.304;2023-05-07T19:46:13;15.70;99.90
1534;DHT22;760;48.822;9.304;2023-05-07T19:48:40;15.70;99.90
1534;DHT22;760;48.822;9.304;2023-05-07T19:51:06;15.70;99.90
1534;DHT22;760;48.822;9.304;2023-05-07T19:53:34;15.80;99.90
1534;DHT22;760;48.822;9.304;2023-05-07T19:58:29;15.80;99.90
1534;DHT22;760;48.822;9.304;2023-05-07T20:00:55;15.80;99.90
1534;DHT22;760;48.822;9.304;2023-05-07T20:03:20;15.80;99.90
1534;DHT22;760;48.822;9.304;2023-05-07T20:05:47;15.80;99.90
1534;DHT22;760;48.822;9.304;2023-05-07T20:08:13;15.80;99.90
1534;DHT22;760;48.822;9.304;2023-05-07T20:10:39;15.80;99.90
1534;DHT22;760;48.822;9.304;2023-05-07T20:13:04;15.70;99.90
1534;DHT22;760;48.822;9.304;2023-05-07T20:15:30;15.70;99.90
1534;DHT22;760;48.822;9.304;2023-05-07T20:17:55;15.70;99.90
1534;DHT22;760;48.822;9.304;2023-05-07T20:20:21;15.70;99.90
1534;DHT22;760;48.822;9.304;2023-05-07T20:22:47;15.80;99.90
1534;DHT22;760;48.822;9.304;2023-05-07T20:25:12;15.70;99.90
1534;DHT22;760;48.822;9.304;2023-05-07T20:27:42;15.70;99.90
1534;DHT22;760;48.822;9.304;2023-05-07T20:30:08;15.70;99.90
1534;DHT22;760;48.822;9.304;2023-05-07T20:32:33;15.70;99.90
1534;DHT22;760;48.822;9.304;2023-05-07T20:34:59;15.70;99.90